Pagrindinis puslapis
METAR-TAF:

METAR-TAF

Oro uostai :

Permė, Rusija

platuma: 58-00N, ilguma: 056-15E, Aukštis: 170 m

Dabartinis oras

Ataskaita buvo paskelbta 39 minutes, ne 03:00 UTC
Vėjas 6 kt iš Vakarų/Šiaurės Vakarų
Temperatūra 21°C
Drėgmė 94%
Slėgis 1015 hPa
Matomumas 10 km arba daugiau
Išsisklaidę debesys ne aukštis 1300 ft

METAR: USPP 110300Z 30003MPS 9999 SCT013 21/20 Q1015 R21/290150 NOSIG RMK QFE751

Laikas: 08:39 (03:39 UTC)

Prognozė

Ataskaita buvo paskelbta 1 valandą ir 44 minutes, ne 01:55 UTC
Prognozė galioja nuo 11 metu 03 UTC su 12 metu 03 UTC
Vėjas 6 kt iš Vakarų/Šiaurės Vakarų su gūsio iki 23 kt
Matomumas 10 km arba daugiau
Su prošvaistėmis ne aukštis 3000 ft
Laikinai
nuo 11 metu 03 UTC su 11 metu 06 UTC
Su prošvaistėmis ne aukštis 1100 ft
Su prošvaistėmis ne aukštis 3000 ft, Liūtiniai kamuoliniai debesys.
lietus
Tapsmas
nuo 11 metu 15 UTC su 11 metu 16 UTC
Vėjas 6 kt iš Vakarų/Pietvakarių su gūsio iki 16 kt

TAF: USPP 110155Z 1103/1203 30003G12MPS 9999 BKN030 TEMPO 1103/1106 -SHRA BKN011 BKN030CB BECMG 1115/1116 24003G08MPS

Orai ataskaitas ir orų prognozės (METAR, TAF).

turimą stotys yra geltonos ir raudonos taškus žemėlapyje.

Perkelti pele per norėdami pamatyti stoties vardą.

Tada spustelėkite, norėdami matyti oro stebėjimo ir prognozės.

Norėdami pakeisti žemėlapį: spustelėkite ant žalios mygtukų su juodo kryžiaus žemyn,; žalią mygtuką su brūkšneliu, jei norite nutolinti; arba žalių rodyklių gretimoms žemėlapius.


METAR-TAF: